sensor_id;sensor_type;location;lat;lon;timestamp;pressure;altitude;pressure_sealevel;temperature;humidity
56594;BME280;42474;51.660;5.824;2023-05-27T00:02:13;1028.7;;;11.1;56.5
56594;BME280;42474;51.660;5.824;2023-05-27T00:06:13;1028.7;;;11;56.5
56594;BME280;42474;51.660;5.824;2023-05-27T00:10:13;1028.7;;;10.9;57
56594;BME280;42474;51.660;5.824;2023-05-27T00:14:13;1028.7;;;10.9;57
56594;BME280;42474;51.660;5.824;2023-05-27T00:18:13;1028.7;;;10.8;57
56594;BME280;42474;51.660;5.824;2023-05-27T00:22:13;1028.7;;;10.8;57.5
56594;BME280;42474;51.660;5.824;2023-05-27T00:26:13;1028.7;;;10.7;57.5
56594;BME280;42474;51.660;5.824;2023-05-27T00:30:13;1028.6;;;10.6;58
56594;BME280;42474;51.660;5.824;2023-05-27T00:34:13;1028.6;;;10.6;58
56594;BME280;42474;51.660;5.824;2023-05-27T00:38:13;1028.6;;;10.5;58.5
56594;BME280;42474;51.660;5.824;2023-05-27T00:42:13;1028.6;;;10.5;58.5
56594;BME280;42474;51.660;5.824;2023-05-27T00:46:13;1028.6;;;10.4;58.5
56594;BME280;42474;51.660;5.824;2023-05-27T00:50:13;1028.6;;;10.4;58.5
56594;BME280;42474;51.660;5.824;2023-05-27T00:54:13;1028.6;;;10.3;59
56594;BME280;42474;51.660;5.824;2023-05-27T00:58:13;1028.6;;;10.3;59
56594;BME280;42474;51.660;5.824;2023-05-27T01:02:14;1028.5;;;10.2;59.5
56594;BME280;42474;51.660;5.824;2023-05-27T01:06:15;1028.5;;;10.2;59.5
56594;BME280;42474;51.660;5.824;2023-05-27T01:10:15;1028.4;;;10.1;60
56594;BME280;42474;51.660;5.824;2023-05-27T01:14:13;1028.4;;;10;60.5
56594;BME280;42474;51.660;5.824;2023-05-27T01:18:13;1028.4;;;10;60.5
56594;BME280;42474;51.660;5.824;2023-05-27T01:22:14;1028.3;;;9.9;61
56594;BME280;42474;51.660;5.824;2023-05-27T01:26:13;1028.3;;;9.9;61
56594;BME280;42474;51.660;5.824;2023-05-27T01:30:13;1028.3;;;9.8;61
56594;BME280;42474;51.660;5.824;2023-05-27T01:34:15;1028.2;;;9.8;61
56594;BME280;42474;51.660;5.824;2023-05-27T01:38:14;1028.3;;;9.7;61
56594;BME280;42474;51.660;5.824;2023-05-27T01:42:13;1028.3;;;9.7;61
56594;BME280;42474;51.660;5.824;2023-05-27T01:46:13;1028.3;;;9.6;61
56594;BME280;42474;51.660;5.824;2023-05-27T01:50:13;1028.3;;;9.6;61.5
56594;BME280;42474;51.660;5.824;2023-05-27T01:54:13;1028.3;;;9.5;61.5
56594;BME280;42474;51.660;5.824;2023-05-27T02:02:13;1028.3;;;9.5;62
56594;BME280;42474;51.660;5.824;2023-05-27T02:06:13;1028.3;;;9.4;62.5
56594;BME280;42474;51.660;5.824;2023-05-27T02:10:13;1028.2;;;9.4;62.5
56594;BME280;42474;51.660;5.824;2023-05-27T02:14:13;1028.2;;;9.3;63
56594;BME280;42474;51.660;5.824;2023-05-27T02:18:13;1028.2;;;9.3;63
56594;BME280;42474;51.660;5.824;2023-05-27T02:22:14;1028.2;;;9.3;63
56594;BME280;42474;51.660;5.824;2023-05-27T02:26:13;1028.2;;;9.2;63
56594;BME280;42474;51.660;5.824;2023-05-27T02:30:14;1028.2;;;9.2;63
56594;BME280;42474;51.660;5.824;2023-05-27T02:38:13;1028.3;;;9.2;63
56594;BME280;42474;51.660;5.824;2023-05-27T02:42:13;1028.3;;;9.1;63
56594;BME280;42474;51.660;5.824;2023-05-27T02:46:13;1028.3;;;9.1;63
56594;BME280;42474;51.660;5.824;2023-05-27T02:50:13;1028.4;;;9;63.5
56594;BME280;42474;51.660;5.824;2023-05-27T02:54:13;1028.3;;;9;63.5
56594;BME280;42474;51.660;5.824;2023-05-27T02:58:13;1028.3;;;9;63.5
56594;BME280;42474;51.660;5.824;2023-05-27T03:02:13;1028.3;;;8.9;63.5
56594;BME280;42474;51.660;5.824;2023-05-27T03:06:13;1028.3;;;8.9;63.5
56594;BME280;42474;51.660;5.824;2023-05-27T03:10:13;1028.4;;;8.9;63.5
56594;BME280;42474;51.660;5.824;2023-05-27T03:14:13;1028.4;;;8.8;64
56594;BME280;42474;51.660;5.824;2023-05-27T03:18:13;1028.4;;;8.8;64
56594;BME280;42474;51.660;5.824;2023-05-27T03:22:13;1028.4;;;8.8;64
56594;BME280;42474;51.660;5.824;2023-05-27T03:26:13;1028.4;;;8.8;64
56594;BME280;42474;51.660;5.824;2023-05-27T03:30:13;1028.4;;;8.7;64.5
56594;BME280;42474;51.660;5.824;2023-05-27T03:34:13;1028.3;;;8.7;64.5
56594;BME280;42474;51.660;5.824;2023-05-27T03:38:13;1028.3;;;8.7;64.5
56594;BME280;42474;51.660;5.824;2023-05-27T03:42:13;1028.2;;;8.7;65
56594;BME280;42474;51.660;5.824;2023-05-27T03:46:13;1028.2;;;8.7;65
56594;BME280;42474;51.660;5.824;2023-05-27T03:50:13;1028.2;;;8.7;65
56594;BME280;42474;51.660;5.824;2023-05-27T03:54:13;1028.2;;;8.6;65.5
56594;BME280;42474;51.660;5.824;2023-05-27T03:58:13;1028.1;;;8.6;65.5
56594;BME280;42474;51.660;5.824;2023-05-27T04:02:13;1028.1;;;8.7;65.5
56594;BME280;42474;51.660;5.824;2023-05-27T04:06:13;1028.1;;;8.7;66
56594;BME280;42474;51.660;5.824;2023-05-27T04:10:13;1028.1;;;8.7;66
56594;BME280;42474;51.660;5.824;2023-05-27T04:14:13;1028.1;;;8.7;66
56594;BME280;42474;51.660;5.824;2023-05-27T04:18:13;1028.1;;;8.7;66
56594;BME280;42474;51.660;5.824;2023-05-27T04:22:13;1028.1;;;8.8;66.5
56594;BME280;42474;51.660;5.824;2023-05-27T04:26:13;1028.1;;;8.8;67
56594;BME280;42474;51.660;5.824;2023-05-27T04:30:13;1028;;;8.8;67
56594;BME280;42474;51.660;5.824;2023-05-27T04:34:13;1028;;;8.8;67
56594;BME280;42474;51.660;5.824;2023-05-27T04:38:13;1027.9;;;8.9;67
56594;BME280;42474;51.660;5.824;2023-05-27T04:42:13;1027.9;;;8.9;68
56594;BME280;42474;51.660;5.824;2023-05-27T04:46:13;1027.8;;;9.2;68.5
56594;BME280;42474;51.660;5.824;2023-05-27T04:50:13;1027.9;;;9.5;69.5
56594;BME280;42474;51.660;5.824;2023-05-27T04:54:13;1027.9;;;9.8;69
56594;BME280;42474;51.660;5.824;2023-05-27T04:58:13;1027.9;;;10.1;68
56594;BME280;42474;51.660;5.824;2023-05-27T05:02:13;1027.9;;;10.1;67
56594;BME280;42474;51.660;5.824;2023-05-27T05:06:13;1027.8;;;10.1;66.5
56594;BME280;42474;51.660;5.824;2023-05-27T05:10:13;1027.8;;;10.1;66.5
56594;BME280;42474;51.660;5.824;2023-05-27T05:14:13;1027.8;;;10.1;66.5
56594;BME280;42474;51.660;5.824;2023-05-27T05:22:13;1027.8;;;10.1;66.5
56594;BME280;42474;51.660;5.824;2023-05-27T05:26:13;1027.8;;;10.2;66.5
56594;BME280;42474;51.660;5.824;2023-05-27T05:30:13;1027.7;;;10.2;67
56594;BME280;42474;51.660;5.824;2023-05-27T05:34:13;1027.8;;;10.2;66.5
56594;BME280;42474;51.660;5.824;2023-05-27T05:38:13;1027.7;;;10.3;67
56594;BME280;42474;51.660;5.824;2023-05-27T05:42:13;1027.7;;;10.5;67
56594;BME280;42474;51.660;5.824;2023-05-27T05:46:13;1027.6;;;10.6;67
56594;BME280;42474;51.660;5.824;2023-05-27T05:50:13;1027.6;;;10.7;67
56594;BME280;42474;51.660;5.824;2023-05-27T05:54:13;1027.6;;;10.9;67
56594;BME280;42474;51.660;5.824;2023-05-27T05:58:13;1027.6;;;11.1;67
56594;BME280;42474;51.660;5.824;2023-05-27T06:02:13;1027.6;;;11.3;67
56594;BME280;42474;51.660;5.824;2023-05-27T06:06:13;1027.7;;;11.4;67
56594;BME280;42474;51.660;5.824;2023-05-27T06:10:13;1027.6;;;11.6;66.5
56594;BME280;42474;51.660;5.824;2023-05-27T06:14:13;1027.6;;;11.8;66.5
56594;BME280;42474;51.660;5.824;2023-05-27T06:18:13;1027.5;;;12;66.5
56594;BME280;42474;51.660;5.824;2023-05-27T06:22:13;1027.5;;;12.1;66.5
56594;BME280;42474;51.660;5.824;2023-05-27T06:26:14;1027.5;;;12.3;66
56594;BME280;42474;51.660;5.824;2023-05-27T06:30:14;1027.5;;;12.4;66
56594;BME280;42474;51.660;5.824;2023-05-27T06:34:14;1027.4;;;12.5;66
56594;BME280;42474;51.660;5.824;2023-05-27T06:38:13;1027.4;;;12.7;65.5
56594;BME280;42474;51.660;5.824;2023-05-27T06:42:13;1027.3;;;12.8;65
56594;BME280;42474;51.660;5.824;2023-05-27T06:46:13;1027.3;;;12.9;65.5
56594;BME280;42474;51.660;5.824;2023-05-27T06:50:13;1027.3;;;13.1;65
56594;BME280;42474;51.660;5.824;2023-05-27T06:54:13;1027.3;;;13.3;64.5
56594;BME280;42474;51.660;5.824;2023-05-27T06:58:13;1027.3;;;13.4;64.5
56594;BME280;42474;51.660;5.824;2023-05-27T07:02:13;1027.2;;;13.6;64
56594;BME280;42474;51.660;5.824;2023-05-27T07:06:13;1027.2;;;13.7;63.5
56594;BME280;42474;51.660;5.824;2023-05-27T07:10:13;1027.1;;;13.8;64
56594;BME280;42474;51.660;5.824;2023-05-27T07:14:13;1027.1;;;14.1;63.5
56594;BME280;42474;51.660;5.824;2023-05-27T07:18:13;1027.1;;;14.3;63.5
56594;BME280;42474;51.660;5.824;2023-05-27T07:22:13;1027.1;;;14.5;63
56594;BME280;42474;51.660;5.824;2023-05-27T07:26:13;1027.1;;;14.7;63
56594;BME280;42474;51.660;5.824;2023-05-27T07:30:13;1027.1;;;14.8;62
56594;BME280;42474;51.660;5.824;2023-05-27T07:34:13;1027;;;14.9;62
56594;BME280;42474;51.660;5.824;2023-05-27T07:42:13;1026.9;;;15.1;61
56594;BME280;42474;51.660;5.824;2023-05-27T07:46:13;1026.9;;;15.3;60.5
56594;BME280;42474;51.660;5.824;2023-05-27T07:50:14;1026.9;;;15.4;60.5
56594;BME280;42474;51.660;5.824;2023-05-27T07:54:13;1026.9;;;15.6;60
56594;BME280;42474;51.660;5.824;2023-05-27T07:58:13;1026.8;;;15.7;60.5
56594;BME280;42474;51.660;5.824;2023-05-27T08:02:13;1026.7;;;15.9;60
56594;BME280;42474;51.660;5.824;2023-05-27T08:06:13;1026.7;;;16;59.5
56594;BME280;42474;51.660;5.824;2023-05-27T08:10:13;1026.7;;;16.1;59
56594;BME280;42474;51.660;5.824;2023-05-27T08:14:13;1026.6;;;16.1;59
56594;BME280;42474;51.660;5.824;2023-05-27T08:18:13;1026.6;;;16.3;59.5
56594;BME280;42474;51.660;5.824;2023-05-27T08:22:13;1026.5;;;16.5;59
56594;BME280;42474;51.660;5.824;2023-05-27T08:26:13;1026.5;;;16.7;58
56594;BME280;42474;51.660;5.824;2023-05-27T08:30:14;1026.3;;;16.8;58
56594;BME280;42474;51.660;5.824;2023-05-27T08:34:13;1026.3;;;17;57.5
56594;BME280;42474;51.660;5.824;2023-05-27T08:38:13;1026.2;;;17.1;57.5
56594;BME280;42474;51.660;5.824;2023-05-27T08:42:13;1026.2;;;17.3;57.5
56594;BME280;42474;51.660;5.824;2023-05-27T08:46:14;1026.2;;;17.5;57
56594;BME280;42474;51.660;5.824;2023-05-27T08:50:13;1026.1;;;17.6;56.5
56594;BME280;42474;51.660;5.824;2023-05-27T08:54:13;1026;;;17.7;55.5
56594;BME280;42474;51.660;5.824;2023-05-27T08:58:13;1025.9;;;17.9;56
56594;BME280;42474;51.660;5.824;2023-05-27T09:02:13;1025.9;;;18;55
56594;BME280;42474;51.660;5.824;2023-05-27T09:06:13;1025.8;;;18.1;54.5
56594;BME280;42474;51.660;5.824;2023-05-27T09:10:14;1025.8;;;18.2;54
56594;BME280;42474;51.660;5.824;2023-05-27T09:14:19;1025.8;;;18.3;53.5
56594;BME280;42474;51.660;5.824;2023-05-27T09:18:13;1025.8;;;18.3;53
56594;BME280;42474;51.660;5.824;2023-05-27T09:22:18;1025.8;;;18.4;53
56594;BME280;42474;51.660;5.824;2023-05-27T09:26:13;1025.7;;;18.5;53
56594;BME280;42474;51.660;5.824;2023-05-27T09:30:14;1025.7;;;18.7;53.5
56594;BME280;42474;51.660;5.824;2023-05-27T09:34:14;1025.6;;;19;53.5
56594;BME280;42474;51.660;5.824;2023-05-27T09:38:13;1025.6;;;19.3;53.5
56594;BME280;42474;51.660;5.824;2023-05-27T09:42:13;1025.5;;;19.6;52.5
56594;BME280;42474;51.660;5.824;2023-05-27T09:46:14;1025.5;;;19.7;51
56594;BME280;42474;51.660;5.824;2023-05-27T09:50:14;1025.4;;;19.7;51
56594;BME280;42474;51.660;5.824;2023-05-27T09:54:18;1025.3;;;19.8;51
56594;BME280;42474;51.660;5.824;2023-05-27T09:58:13;1025.3;;;20;50.5
56594;BME280;42474;51.660;5.824;2023-05-27T10:02:16;1025.2;;;20.1;50
56594;BME280;42474;51.660;5.824;2023-05-27T10:06:14;1025.2;;;20.2;49.5
56594;BME280;42474;51.660;5.824;2023-05-27T10:10:15;1025.2;;;20.3;48.5
56594;BME280;42474;51.660;5.824;2023-05-27T10:14:14;1025.1;;;20.3;49
56594;BME280;42474;51.660;5.824;2023-05-27T10:18:21;1025.1;;;20.5;48.5
56594;BME280;42474;51.660;5.824;2023-05-27T10:22:13;1025.1;;;20.7;48.5
56594;BME280;42474;51.660;5.824;2023-05-27T10:26:13;1025.1;;;20.8;47
56594;BME280;42474;51.660;5.824;2023-05-27T10:30:14;1025.1;;;20.9;47
56594;BME280;42474;51.660;5.824;2023-05-27T10:34:14;1025;;;20.9;46
56594;BME280;42474;51.660;5.824;2023-05-27T10:38:17;1024.9;;;21.1;46.5
56594;BME280;42474;51.660;5.824;2023-05-27T10:42:14;1024.9;;;21.2;46
56594;BME280;42474;51.660;5.824;2023-05-27T10:46:14;1024.9;;;21.3;45.5
56594;BME280;42474;51.660;5.824;2023-05-27T10:50:14;1024.8;;;21.4;45.5
56594;BME280;42474;51.660;5.824;2023-05-27T10:54:14;1024.8;;;21.4;45
56594;BME280;42474;51.660;5.824;2023-05-27T10:58:16;1024.8;;;21.5;44.5
56594;BME280;42474;51.660;5.824;2023-05-27T11:02:14;1024.7;;;21.6;45.5
56594;BME280;42474;51.660;5.824;2023-05-27T11:06:14;1024.6;;;21.8;45.5
56594;BME280;42474;51.660;5.824;2023-05-27T11:10:14;1024.5;;;21.9;43.5
56594;BME280;42474;51.660;5.824;2023-05-27T11:14:14;1024.5;;;21.9;42.5
56594;BME280;42474;51.660;5.824;2023-05-27T11:18:13;1024.4;;;22;43
56594;BME280;42474;51.660;5.824;2023-05-27T11:22:14;1024.3;;;22.1;43.5
56594;BME280;42474;51.660;5.824;2023-05-27T11:26:14;1024.3;;;22.1;40.5
56594;BME280;42474;51.660;5.824;2023-05-27T11:30:14;1024.2;;;22.1;41.5
56594;BME280;42474;51.660;5.824;2023-05-27T11:34:14;1024.1;;;22.1;41.5
56594;BME280;42474;51.660;5.824;2023-05-27T11:38:16;1024.1;;;22.3;41
56594;BME280;42474;51.660;5.824;2023-05-27T11:42:14;1024;;;22.5;42
56594;BME280;42474;51.660;5.824;2023-05-27T11:46:14;1024;;;22.7;41
56594;BME280;42474;51.660;5.824;2023-05-27T11:50:14;1023.9;;;22.8;41
56594;BME280;42474;51.660;5.824;2023-05-27T11:54:17;1023.9;;;23;40
56594;BME280;42474;51.660;5.824;2023-05-27T11:58:14;1023.8;;;23.1;39.5
56594;BME280;42474;51.660;5.824;2023-05-27T12:02:14;1023.7;;;23.2;40
56594;BME280;42474;51.660;5.824;2023-05-27T12:06:14;1023.6;;;23.4;40
56594;BME280;42474;51.660;5.824;2023-05-27T12:10:14;1023.5;;;23.4;40
56594;BME280;42474;51.660;5.824;2023-05-27T12:14:14;1023.5;;;23.5;40
56594;BME280;42474;51.660;5.824;2023-05-27T12:18:14;1023.6;;;23.6;39.5
56594;BME280;42474;51.660;5.824;2023-05-27T12:26:14;1023.4;;;23.9;40
56594;BME280;42474;51.660;5.824;2023-05-27T12:30:14;1023.4;;;23.9;40
56594;BME280;42474;51.660;5.824;2023-05-27T12:34:14;1023.4;;;23.9;38.5
56594;BME280;42474;51.660;5.824;2023-05-27T12:38:14;1023.3;;;23.9;37.5
56594;BME280;42474;51.660;5.824;2023-05-27T12:42:14;1023.2;;;23.8;36
56594;BME280;42474;51.660;5.824;2023-05-27T12:46:14;1023.2;;;23.7;36.5
56594;BME280;42474;51.660;5.824;2023-05-27T12:50:14;1023.1;;;23.6;38
56594;BME280;42474;51.660;5.824;2023-05-27T12:54:14;1023.1;;;23.8;38
56594;BME280;42474;51.660;5.824;2023-05-27T12:58:14;1023;;;23.9;38
56594;BME280;42474;51.660;5.824;2023-05-27T13:02:14;1022.9;;;24;38.5
56594;BME280;42474;51.660;5.824;2023-05-27T13:06:14;1022.9;;;24.2;38
56594;BME280;42474;51.660;5.824;2023-05-27T13:10:14;1022.9;;;24.3;37.5
56594;BME280;42474;51.660;5.824;2023-05-27T13:14:14;1022.8;;;24.3;37.5
56594;BME280;42474;51.660;5.824;2023-05-27T13:18:14;1022.8;;;24.4;38
56594;BME280;42474;51.660;5.824;2023-05-27T13:22:15;1022.8;;;24.5;37
56594;BME280;42474;51.660;5.824;2023-05-27T13:26:14;1022.8;;;24.7;37.5
56594;BME280;42474;51.660;5.824;2023-05-27T13:30:14;1022.7;;;24.8;37
56594;BME280;42474;51.660;5.824;2023-05-27T13:34:15;1022.7;;;24.8;37.5
56594;BME280;42474;51.660;5.824;2023-05-27T13:38:14;1022.7;;;24.9;37.5
56594;BME280;42474;51.660;5.824;2023-05-27T13:42:14;1022.7;;;25;36.5
56594;BME280;42474;51.660;5.824;2023-05-27T13:46:15;1022.6;;;25;36.5
56594;BME280;42474;51.660;5.824;2023-05-27T13:50:14;1022.5;;;25;35
56594;BME280;42474;51.660;5.824;2023-05-27T13:54:14;1022.4;;;25;34.5
56594;BME280;42474;51.660;5.824;2023-05-27T13:58:15;1022.4;;;25;35
56594;BME280;42474;51.660;5.824;2023-05-27T14:02:14;1022.2;;;25.1;35.5
56594;BME280;42474;51.660;5.824;2023-05-27T14:06:14;1022.1;;;25.4;35.5
56594;BME280;42474;51.660;5.824;2023-05-27T14:10:15;1022.1;;;25.5;34
56594;BME280;42474;51.660;5.824;2023-05-27T14:14:14;1022;;;25.5;33.5
56594;BME280;42474;51.660;5.824;2023-05-27T14:18:15;1022;;;25.6;34.5
56594;BME280;42474;51.660;5.824;2023-05-27T14:22:14;1021.9;;;25.7;35
56594;BME280;42474;51.660;5.824;2023-05-27T14:26:15;1021.8;;;25.8;34
56594;BME280;42474;51.660;5.824;2023-05-27T14:30:14;1021.9;;;25.8;33
56594;BME280;42474;51.660;5.824;2023-05-27T14:34:15;1021.8;;;26;34
56594;BME280;42474;51.660;5.824;2023-05-27T14:38:15;1021.7;;;26.3;33
56594;BME280;42474;51.660;5.824;2023-05-27T14:42:14;1021.7;;;26.3;33
56594;BME280;42474;51.660;5.824;2023-05-27T14:46:14;1021.7;;;26.6;33
56594;BME280;42474;51.660;5.824;2023-05-27T14:50:14;1021.7;;;26.8;32
56594;BME280;42474;51.660;5.824;2023-05-27T14:54:14;1021.6;;;27;32
56594;BME280;42474;51.660;5.824;2023-05-27T14:58:14;1021.6;;;27.1;31
56594;BME280;42474;51.660;5.824;2023-05-27T15:02:14;1021.6;;;27.4;31.5
56594;BME280;42474;51.660;5.824;2023-05-27T15:06:14;1021.6;;;27.7;31
56594;BME280;42474;51.660;5.824;2023-05-27T15:10:14;1021.5;;;28;31
56594;BME280;42474;51.660;5.824;2023-05-27T15:14:14;1021.5;;;28.2;29.5
56594;BME280;42474;51.660;5.824;2023-05-27T15:18:14;1021.4;;;28.2;29
56594;BME280;42474;51.660;5.824;2023-05-27T15:22:14;1021.4;;;28.2;29
56594;BME280;42474;51.660;5.824;2023-05-27T15:26:14;1021.3;;;28.4;29
56594;BME280;42474;51.660;5.824;2023-05-27T15:30:14;1021.2;;;28.6;29
56594;BME280;42474;51.660;5.824;2023-05-27T15:34:14;1021.2;;;28.9;29.5
56594;BME280;42474;51.660;5.824;2023-05-27T15:38:14;1021.2;;;28.9;27.5
56594;BME280;42474;51.660;5.824;2023-05-27T15:42:14;1021.2;;;28.8;28.5
56594;BME280;42474;51.660;5.824;2023-05-27T15:46:14;1021.2;;;29.1;28.5
56594;BME280;42474;51.660;5.824;2023-05-27T15:50:14;1021.1;;;29.4;28.5
56594;BME280;42474;51.660;5.824;2023-05-27T15:54:14;1021.1;;;29.5;28.5
56594;BME280;42474;51.660;5.824;2023-05-27T15:58:14;1021;;;29.5;28.5
56594;BME280;42474;51.660;5.824;2023-05-27T16:02:14;1021.1;;;29.7;28.5
56594;BME280;42474;51.660;5.824;2023-05-27T16:06:14;1021;;;29.7;28
56594;BME280;42474;51.660;5.824;2023-05-27T16:10:14;1021;;;29.7;28
56594;BME280;42474;51.660;5.824;2023-05-27T16:14:14;1020.9;;;29.7;28
56594;BME280;42474;51.660;5.824;2023-05-27T16:18:14;1020.9;;;29.5;27.5
56594;BME280;42474;51.660;5.824;2023-05-27T16:22:14;1020.9;;;29.3;28
56594;BME280;42474;51.660;5.824;2023-05-27T16:26:14;1020.9;;;29.1;28
56594;BME280;42474;51.660;5.824;2023-05-27T16:30:14;1020.9;;;29;28
56594;BME280;42474;51.660;5.824;2023-05-27T16:34:14;1020.8;;;29;28
56594;BME280;42474;51.660;5.824;2023-05-27T16:38:14;1020.8;;;28.8;27.5
56594;BME280;42474;51.660;5.824;2023-05-27T16:42:14;1020.8;;;28.6;27.5
56594;BME280;42474;51.660;5.824;2023-05-27T16:46:14;1020.7;;;28.6;28
56594;BME280;42474;51.660;5.824;2023-05-27T16:50:14;1020.7;;;28.7;28
56594;BME280;42474;51.660;5.824;2023-05-27T16:54:14;1020.6;;;28.8;27.5
56594;BME280;42474;51.660;5.824;2023-05-27T16:58:14;1020.6;;;28.9;28
56594;BME280;42474;51.660;5.824;2023-05-27T17:02:14;1020.6;;;28.8;27.5
56594;BME280;42474;51.660;5.824;2023-05-27T17:06:14;1020.5;;;28.9;28
56594;BME280;42474;51.660;5.824;2023-05-27T17:10:14;1020.5;;;28.9;27
56594;BME280;42474;51.660;5.824;2023-05-27T17:14:14;1020.5;;;28.9;27.5
56594;BME280;42474;51.660;5.824;2023-05-27T17:18:14;1020.5;;;29.2;27.5
56594;BME280;42474;51.660;5.824;2023-05-27T17:22:15;1020.4;;;29;26.5
56594;BME280;42474;51.660;5.824;2023-05-27T17:26:14;1020.5;;;28.5;27.5
56594;BME280;42474;51.660;5.824;2023-05-27T17:30:14;1020.5;;;28.6;27.5
56594;BME280;42474;51.660;5.824;2023-05-27T17:34:14;1020.5;;;28.6;28
56594;BME280;42474;51.660;5.824;2023-05-27T17:38:14;1020.5;;;28.7;28
56594;BME280;42474;51.660;5.824;2023-05-27T17:42:14;1020.4;;;28.9;28
56594;BME280;42474;51.660;5.824;2023-05-27T17:46:14;1020.4;;;28.6;27.5
56594;BME280;42474;51.660;5.824;2023-05-27T17:50:14;1020.4;;;28.2;27.5
56594;BME280;42474;51.660;5.824;2023-05-27T17:54:14;1020.4;;;28;28
56594;BME280;42474;51.660;5.824;2023-05-27T17:58:14;1020.4;;;27.6;28
56594;BME280;42474;51.660;5.824;2023-05-27T18:02:14;1020.4;;;27.2;28.5
56594;BME280;42474;51.660;5.824;2023-05-27T18:06:14;1020.4;;;27.1;29
56594;BME280;42474;51.660;5.824;2023-05-27T18:10:14;1020.4;;;26.9;29
56594;BME280;42474;51.660;5.824;2023-05-27T18:14:14;1020.4;;;26.6;29.5
56594;BME280;42474;51.660;5.824;2023-05-27T18:18:14;1020.3;;;26.6;30
56594;BME280;42474;51.660;5.824;2023-05-27T18:22:14;1020.3;;;26.6;30
56594;BME280;42474;51.660;5.824;2023-05-27T18:26:14;1020.3;;;26.6;30
56594;BME280;42474;51.660;5.824;2023-05-27T18:30:14;1020.4;;;26.4;30
56594;BME280;42474;51.660;5.824;2023-05-27T18:34:14;1020.4;;;26.1;30.5
56594;BME280;42474;51.660;5.824;2023-05-27T18:38:14;1020.4;;;25.9;30.5
56594;BME280;42474;51.660;5.824;2023-05-27T18:42:15;1020.4;;;25.6;31
56594;BME280;42474;51.660;5.824;2023-05-27T18:46:14;1020.3;;;25.3;31.5
56594;BME280;42474;51.660;5.824;2023-05-27T18:50:15;1020.4;;;25;31.5
56594;BME280;42474;51.660;5.824;2023-05-27T18:54:14;1020.3;;;24.6;32
56594;BME280;42474;51.660;5.824;2023-05-27T18:58:14;1020.4;;;24.4;32.5
56594;BME280;42474;51.660;5.824;2023-05-27T19:02:14;1020.5;;;24.1;33
56594;BME280;42474;51.660;5.824;2023-05-27T19:06:14;1020.5;;;23.8;33
56594;BME280;42474;51.660;5.824;2023-05-27T19:10:14;1020.5;;;23.4;33.5
56594;BME280;42474;51.660;5.824;2023-05-27T19:14:14;1020.5;;;23;34
56594;BME280;42474;51.660;5.824;2023-05-27T19:18:14;1020.5;;;22.7;34.5
56594;BME280;42474;51.660;5.824;2023-05-27T19:22:14;1020.5;;;22.5;34.5
56594;BME280;42474;51.660;5.824;2023-05-27T19:26:14;1020.5;;;22.2;35
56594;BME280;42474;51.660;5.824;2023-05-27T19:30:14;1020.5;;;22;35.5
56594;BME280;42474;51.660;5.824;2023-05-27T19:34:14;1020.5;;;21.7;35.5
56594;BME280;42474;51.660;5.824;2023-05-27T19:38:14;1020.5;;;21.5;36
56594;BME280;42474;51.660;5.824;2023-05-27T19:42:14;1020.6;;;21.3;36.5
56594;BME280;42474;51.660;5.824;2023-05-27T19:46:14;1020.6;;;21.1;36.5
56594;BME280;42474;51.660;5.824;2023-05-27T19:50:14;1020.7;;;20.9;37
56594;BME280;42474;51.660;5.824;2023-05-27T19:54:14;1020.7;;;20.7;37
56594;BME280;42474;51.660;5.824;2023-05-27T19:58:14;1020.6;;;20.5;37.5
56594;BME280;42474;51.660;5.824;2023-05-27T20:02:14;1020.6;;;20.3;37.5
56594;BME280;42474;51.660;5.824;2023-05-27T20:06:14;1020.7;;;20.2;38
56594;BME280;42474;51.660;5.824;2023-05-27T20:10:14;1020.7;;;20.1;38.5
56594;BME280;42474;51.660;5.824;2023-05-27T20:14:14;1020.7;;;20;38.5
56594;BME280;42474;51.660;5.824;2023-05-27T20:18:14;1020.7;;;19.8;39
56594;BME280;42474;51.660;5.824;2023-05-27T20:22:14;1020.7;;;19.6;39
56594;BME280;42474;51.660;5.824;2023-05-27T20:26:14;1020.7;;;19.5;39.5
56594;BME280;42474;51.660;5.824;2023-05-27T20:30:14;1020.7;;;19.3;39.5
56594;BME280;42474;51.660;5.824;2023-05-27T20:34:14;1020.7;;;19.2;40
56594;BME280;42474;51.660;5.824;2023-05-27T20:38:14;1020.7;;;19.1;40
56594;BME280;42474;51.660;5.824;2023-05-27T20:42:14;1020.7;;;19;40.5
56594;BME280;42474;51.660;5.824;2023-05-27T20:46:14;1020.7;;;18.9;40.5
56594;BME280;42474;51.660;5.824;2023-05-27T20:50:14;1020.7;;;18.8;41
56594;BME280;42474;51.660;5.824;2023-05-27T20:54:14;1020.7;;;18.7;41
56594;BME280;42474;51.660;5.824;2023-05-27T20:58:14;1020.6;;;18.6;41.5
56594;BME280;42474;51.660;5.824;2023-05-27T21:02:14;1020.6;;;18.5;41.5
56594;BME280;42474;51.660;5.824;2023-05-27T21:06:14;1020.6;;;18.4;41.5
56594;BME280;42474;51.660;5.824;2023-05-27T21:10:14;1020.6;;;18.3;42
56594;BME280;42474;51.660;5.824;2023-05-27T21:14:14;1020.6;;;18.2;42
56594;BME280;42474;51.660;5.824;2023-05-27T21:18:14;1020.5;;;18.1;42.5
56594;BME280;42474;51.660;5.824;2023-05-27T21:22:14;1020.5;;;18;43
56594;BME280;42474;51.660;5.824;2023-05-27T21:26:14;1020.5;;;17.9;43
56594;BME280;42474;51.660;5.824;2023-05-27T21:30:14;1020.5;;;17.8;43
56594;BME280;42474;51.660;5.824;2023-05-27T21:34:14;1020.6;;;17.7;43.5
56594;BME280;42474;51.660;5.824;2023-05-27T21:38:14;1020.6;;;17.5;43.5
56594;BME280;42474;51.660;5.824;2023-05-27T21:42:14;1020.6;;;17.4;44
56594;BME280;42474;51.660;5.824;2023-05-27T21:46:14;1020.5;;;17.2;44.5
56594;BME280;42474;51.660;5.824;2023-05-27T21:50:14;1020.5;;;17.1;44.5
56594;BME280;42474;51.660;5.824;2023-05-27T21:54:14;1020.5;;;17;45
56594;BME280;42474;51.660;5.824;2023-05-27T21:58:14;1020.5;;;16.8;45
56594;BME280;42474;51.660;5.824;2023-05-27T22:02:14;1020.5;;;16.7;45
56594;BME280;42474;51.660;5.824;2023-05-27T22:06:14;1020.5;;;16.5;45.5
56594;BME280;42474;51.660;5.824;2023-05-27T22:10:14;1020.5;;;16.4;46
56594;BME280;42474;51.660;5.824;2023-05-27T22:14:14;1020.6;;;16.3;46
56594;BME280;42474;51.660;5.824;2023-05-27T22:18:14;1020.5;;;16.2;46.5
56594;BME280;42474;51.660;5.824;2023-05-27T22:22:14;1020.5;;;16;46.5
56594;BME280;42474;51.660;5.824;2023-05-27T22:26:14;1020.4;;;16;47
56594;BME280;42474;51.660;5.824;2023-05-27T22:30:14;1020.4;;;15.9;47
56594;BME280;42474;51.660;5.824;2023-05-27T22:34:14;1020.4;;;15.8;47
56594;BME280;42474;51.660;5.824;2023-05-27T22:38:14;1020.4;;;15.7;47.5
56594;BME280;42474;51.660;5.824;2023-05-27T22:42:14;1020.4;;;15.6;47.5
56594;BME280;42474;51.660;5.824;2023-05-27T22:46:14;1020.3;;;15.5;47.5
56594;BME280;42474;51.660;5.824;2023-05-27T22:50:14;1020.3;;;15.4;48
56594;BME280;42474;51.660;5.824;2023-05-27T22:54:14;1020.2;;;15.4;48
56594;BME280;42474;51.660;5.824;2023-05-27T22:58:14;1020.3;;;15.3;48.5
56594;BME280;42474;51.660;5.824;2023-05-27T23:02:14;1020.3;;;15.2;48.5
56594;BME280;42474;51.660;5.824;2023-05-27T23:06:14;1020.3;;;15.1;48.5
56594;BME280;42474;51.660;5.824;2023-05-27T23:10:14;1020.3;;;15;49